createdAt,value
2018-01-22T00:00:47.775Z,-76
2018-01-22T00:01:48.971Z,-76
2018-01-22T00:02:49.307Z,-71
2018-01-22T00:03:48.118Z,-72
2018-01-22T00:04:47.946Z,-71
2018-01-22T00:05:48.210Z,-73
2018-01-22T00:06:48.487Z,-71
2018-01-22T00:07:48.565Z,-71
2018-01-22T00:08:48.636Z,-72
2018-01-22T00:09:48.221Z,-71
2018-01-22T00:10:51.551Z,-71
2018-01-22T00:11:48.633Z,-71
2018-01-22T00:12:48.718Z,-72
2018-01-22T00:13:48.813Z,-76
2018-01-22T00:14:49.241Z,-76
2018-01-22T00:15:48.308Z,-76
2018-01-22T00:16:50.238Z,-76
2018-01-22T00:17:50.133Z,-76
2018-01-22T00:18:49.419Z,-74
2018-01-22T00:19:50.472Z,-73
2018-01-22T00:20:49.478Z,-73
2018-01-22T00:21:50.752Z,-73
2018-01-22T00:22:48.038Z,-73
2018-01-22T00:23:49.212Z,-76
2018-01-22T00:24:49.629Z,-76
2018-01-22T00:25:48.922Z,-76
2018-01-22T00:26:48.567Z,-76
2018-01-22T00:27:48.561Z,-76
2018-01-22T00:28:51.068Z,-75
2018-01-22T00:29:48.234Z,-75
2018-01-22T00:30:48.149Z,-73
2018-01-22T00:31:47.809Z,-74
2018-01-22T00:32:48.192Z,-74
2018-01-22T00:33:47.260Z,-75
2018-01-22T00:34:48.239Z,-75
2018-01-22T00:35:48.290Z,-75
2018-01-22T00:36:49.672Z,-75
2018-01-22T00:37:48.127Z,-72
2018-01-22T00:38:48.725Z,-73
2018-01-22T00:39:48.446Z,-73
2018-01-22T00:40:47.949Z,-73
2018-01-22T00:41:49.237Z,-73
2018-01-22T00:42:48.456Z,-73
2018-01-22T00:43:48.576Z,-73
2018-01-22T00:44:47.997Z,-73
2018-01-22T00:45:48.115Z,-73
2018-01-22T00:46:48.495Z,-73
2018-01-22T00:47:48.307Z,-73
2018-01-22T00:49:48.064Z,-74
2018-01-22T00:50:48.492Z,-73
2018-01-22T00:51:48.191Z,-73
2018-01-22T00:52:49.679Z,-72
2018-01-22T00:53:48.490Z,-73
2018-01-22T00:54:48.328Z,-73
2018-01-22T00:55:48.128Z,-73
2018-01-22T00:56:48.933Z,-72
2018-01-22T00:57:48.244Z,-73
2018-01-22T00:58:48.250Z,-73
2018-01-22T00:59:48.142Z,-72
2018-01-22T01:00:47.951Z,-72
2018-01-22T01:01:48.285Z,-71
2018-01-22T01:02:48.102Z,-71
2018-01-22T01:03:48.062Z,-72
2018-01-22T01:04:48.484Z,-72
2018-01-22T01:05:48.383Z,-72
2018-01-22T01:06:48.511Z,-72
2018-01-22T01:09:49.060Z,-73
2018-01-22T01:10:47.959Z,-73
2018-01-22T01:11:48.278Z,-72
2018-01-22T01:12:49.503Z,-73
2018-01-22T01:13:48.336Z,-73
2018-01-22T01:14:48.463Z,-72
2018-01-22T01:15:48.060Z,-72
2018-01-22T01:16:48.197Z,-72
2018-01-22T01:17:48.377Z,-72
2018-01-22T01:18:48.531Z,-72
2018-01-22T01:19:47.669Z,-72
2018-01-22T01:20:48.288Z,-72
2018-01-22T01:21:48.267Z,-72
2018-01-22T01:22:48.090Z,-72
2018-01-22T01:23:50.219Z,-74
2018-01-22T01:24:48.291Z,-75
2018-01-22T01:25:48.882Z,-75
2018-01-22T01:26:52.522Z,-75
2018-01-22T01:27:48.488Z,-72
2018-01-22T01:28:47.775Z,-72
2018-01-22T01:29:49.189Z,-73
2018-01-22T01:30:49.352Z,-73
2018-01-22T01:31:48.035Z,-72
2018-01-22T01:32:48.256Z,-72
2018-01-22T01:33:48.705Z,-73
2018-01-22T01:34:48.946Z,-72
2018-01-22T01:35:47.797Z,-72
2018-01-22T01:36:48.226Z,-72
2018-01-22T01:37:48.762Z,-72
2018-01-22T01:40:04.318Z,-72
2018-01-22T01:40:48.891Z,-73
2018-01-22T01:41:48.169Z,-72
2018-01-22T01:45:48.567Z,-75
2018-01-22T01:46:48.426Z,-75
2018-01-22T01:47:48.477Z,-72
2018-01-22T01:48:48.740Z,-71
2018-01-22T01:49:48.863Z,-71
2018-01-22T01:50:48.486Z,-71
2018-01-22T01:51:49.062Z,-71
2018-01-22T01:52:47.677Z,-72
2018-01-22T01:53:48.573Z,-72
2018-01-22T01:54:48.786Z,-72
2018-01-22T01:55:48.222Z,-73
2018-01-22T01:56:48.094Z,-73
2018-01-22T01:57:48.368Z,-72
2018-01-22T01:58:48.770Z,-72
2018-01-22T01:59:48.070Z,-71
2018-01-22T02:00:49.208Z,-72
2018-01-22T02:01:48.373Z,-73
2018-01-22T02:02:49.159Z,-74
2018-01-22T02:03:48.884Z,-75
2018-01-22T02:04:48.406Z,-75
2018-01-22T02:05:48.831Z,-74
2018-01-22T02:06:49.506Z,-75
2018-01-22T02:07:50.517Z,-75
2018-01-22T02:08:49.473Z,-75
2018-01-22T02:09:48.138Z,-75
2018-01-22T02:10:49.196Z,-75
2018-01-22T02:11:48.611Z,-75
2018-01-22T02:12:48.968Z,-75
2018-01-22T02:13:48.604Z,-75
2018-01-22T02:14:48.676Z,-76
2018-01-22T02:15:48.379Z,-74
2018-01-22T02:16:48.321Z,-74
2018-01-22T02:17:48.301Z,-75
2018-01-22T02:18:48.294Z,-75
2018-01-22T02:19:49.135Z,-75
2018-01-22T02:20:48.110Z,-75
2018-01-22T02:21:48.362Z,-76
2018-01-22T02:25:09.277Z,-73
2018-01-22T02:27:48.353Z,-73
2018-01-22T02:28:48.741Z,-75
2018-01-22T02:29:48.831Z,-75
2018-01-22T02:30:47.817Z,-75
2018-01-22T02:31:48.216Z,-76
2018-01-22T02:32:48.579Z,-75
2018-01-22T02:33:48.074Z,-76
2018-01-22T02:34:48.560Z,-75
2018-01-22T02:35:48.449Z,-75
2018-01-22T02:36:48.268Z,-75
2018-01-22T02:37:49.487Z,-75
2018-01-22T02:38:48.264Z,-75
2018-01-22T02:39:48.734Z,-75
2018-01-22T02:40:48.293Z,-75
2018-01-22T02:41:48.432Z,-75
2018-01-22T02:42:49.693Z,-75
2018-01-22T02:43:48.790Z,-76
2018-01-22T02:47:49.607Z,-75
2018-01-22T02:48:48.355Z,-75
2018-01-22T02:49:48.902Z,-72
2018-01-22T02:50:48.877Z,-75
2018-01-22T02:51:48.343Z,-74
2018-01-22T02:52:48.321Z,-74
2018-01-22T02:53:48.715Z,-74
2018-01-22T02:54:48.945Z,-74
2018-01-22T02:55:50.871Z,-75
2018-01-22T02:56:49.455Z,-75
2018-01-22T02:57:48.394Z,-75
2018-01-22T02:58:48.904Z,-74
2018-01-22T03:00:48.301Z,-73
2018-01-22T03:01:49.608Z,-73
2018-01-22T03:02:50.579Z,-71
2018-01-22T03:03:48.306Z,-71
2018-01-22T03:04:49.130Z,-71
2018-01-22T03:05:48.903Z,-71
2018-01-22T03:06:48.198Z,-71
2018-01-22T03:08:51.048Z,-76
2018-01-22T03:09:47.883Z,-75
2018-01-22T03:10:48.484Z,-75
2018-01-22T03:11:48.347Z,-75
2018-01-22T03:12:47.786Z,-75
2018-01-22T03:13:47.619Z,-75
2018-01-22T03:14:47.152Z,-75
2018-01-22T03:15:47.140Z,-75
2018-01-22T03:16:47.123Z,-75
2018-01-22T03:17:47.064Z,-73
2018-01-22T03:18:47.239Z,-73
2018-01-22T03:21:47.408Z,-73
2018-01-22T03:22:47.046Z,-73
2018-01-22T03:23:47.267Z,-73
2018-01-22T03:24:47.297Z,-73
2018-01-22T03:25:47.177Z,-73
2018-01-22T03:26:47.295Z,-73
2018-01-22T03:27:47.190Z,-73
2018-01-22T03:28:47.208Z,-74
2018-01-22T03:29:47.309Z,-74
2018-01-22T03:30:47.209Z,-74
2018-01-22T03:31:47.147Z,-74
2018-01-22T03:32:47.293Z,-74
2018-01-22T03:33:47.232Z,-74
2018-01-22T03:34:47.501Z,-74
2018-01-22T03:35:47.073Z,-74
2018-01-22T03:36:47.105Z,-74
2018-01-22T03:37:47.105Z,-72
2018-01-22T03:38:47.275Z,-73
2018-01-22T03:39:47.140Z,-73
2018-01-22T03:40:47.193Z,-75
2018-01-22T03:41:47.290Z,-75
2018-01-22T03:43:47.308Z,-71
2018-01-22T03:44:47.184Z,-73
2018-01-22T03:47:47.357Z,-73
2018-01-22T03:48:47.223Z,-73
2018-01-22T03:49:47.068Z,-75
2018-01-22T03:50:47.073Z,-75
2018-01-22T03:51:47.358Z,-75
2018-01-22T03:52:47.123Z,-74
2018-01-22T03:53:47.380Z,-75
2018-01-22T03:54:47.059Z,-75
2018-01-22T03:55:47.315Z,-75
2018-01-22T03:56:47.500Z,-73
2018-01-22T03:57:47.725Z,-75
2018-01-22T03:58:47.175Z,-75
2018-01-22T03:59:47.208Z,-75
2018-01-22T04:00:47.333Z,-76
2018-01-22T04:01:47.299Z,-75
2018-01-22T04:02:47.406Z,-75
2018-01-22T04:03:47.364Z,-75
2018-01-22T04:04:47.077Z,-71
2018-01-22T04:05:46.938Z,-71
2018-01-22T04:06:47.127Z,-72
2018-01-22T04:07:47.251Z,-72
2018-01-22T04:08:47.380Z,-72
2018-01-22T04:09:47.280Z,-72
2018-01-22T04:10:47.259Z,-72
2018-01-22T04:11:47.161Z,-72
2018-01-22T04:12:47.201Z,-72
2018-01-22T04:13:47.198Z,-73
2018-01-22T04:14:47.281Z,-71
2018-01-22T04:15:47.345Z,-71
2018-01-22T04:16:47.379Z,-73
2018-01-22T04:17:47.054Z,-76
2018-01-22T04:18:47.355Z,-76
2018-01-22T04:21:47.026Z,-75
2018-01-22T04:22:47.249Z,-75
2018-01-22T04:25:54.937Z,-76
2018-01-22T04:28:47.535Z,-72
2018-01-22T04:29:47.538Z,-72
2018-01-22T04:30:47.140Z,-72
2018-01-22T04:31:47.039Z,-73
2018-01-22T04:32:47.245Z,-72
2018-01-22T04:33:47.411Z,-73
2018-01-22T04:34:47.308Z,-72
2018-01-22T04:35:47.388Z,-72
2018-01-22T04:36:47.242Z,-72
2018-01-22T04:37:47.313Z,-72
2018-01-22T04:38:47.307Z,-72
2018-01-22T04:39:47.347Z,-73
2018-01-22T04:40:47.241Z,-73
2018-01-22T04:41:47.088Z,-74
2018-01-22T04:42:47.284Z,-75
2018-01-22T04:43:47.304Z,-73
2018-01-22T04:44:47.208Z,-73
2018-01-22T04:45:47.364Z,-73
2018-01-22T04:48:47.353Z,-71
2018-01-22T04:49:47.279Z,-76
2018-01-22T04:50:47.371Z,-76
2018-01-22T04:51:47.494Z,-76
2018-01-22T04:52:47.363Z,-76
2018-01-22T04:53:47.429Z,-76
2018-01-22T04:54:47.632Z,-76
2018-01-22T04:55:47.926Z,-76
2018-01-22T04:56:47.419Z,-76
2018-01-22T04:57:47.179Z,-76
2018-01-22T05:00:47.294Z,-73
2018-01-22T05:01:47.247Z,-71
2018-01-22T05:02:47.285Z,-71
2018-01-22T05:03:47.378Z,-72
2018-01-22T05:04:47.267Z,-73
2018-01-22T05:05:47.238Z,-73
2018-01-22T05:06:47.243Z,-73
2018-01-22T05:07:47.241Z,-72
2018-01-22T05:08:47.244Z,-73
2018-01-22T05:09:48.765Z,-73
2018-01-22T05:10:47.415Z,-73
2018-01-22T05:11:47.394Z,-74
2018-01-22T05:12:47.451Z,-75
2018-01-22T05:13:47.489Z,-76
2018-01-22T05:14:47.441Z,-76
2018-01-22T05:15:47.281Z,-76
2018-01-22T05:16:47.325Z,-76
2018-01-22T05:17:47.204Z,-76
2018-01-22T05:18:47.393Z,-73
2018-01-22T05:19:47.287Z,-73
2018-01-22T05:20:47.190Z,-73
2018-01-22T05:21:47.572Z,-72
2018-01-22T05:22:47.434Z,-72
2018-01-22T05:23:47.374Z,-72
2018-01-22T05:24:47.188Z,-72
2018-01-22T05:25:47.429Z,-72
2018-01-22T05:26:47.449Z,-72
2018-01-22T05:27:49.598Z,-72
2018-01-22T05:28:47.335Z,-72
2018-01-22T05:29:47.360Z,-73
2018-01-22T05:30:47.423Z,-72
2018-01-22T05:31:47.328Z,-71
2018-01-22T05:32:47.231Z,-73
2018-01-22T05:33:47.325Z,-73
2018-01-22T05:34:47.257Z,-73
2018-01-22T05:35:47.249Z,-73
2018-01-22T05:36:48.374Z,-73
2018-01-22T05:37:47.279Z,-73
2018-01-22T05:38:47.170Z,-73
2018-01-22T05:39:47.409Z,-73
2018-01-22T05:40:47.562Z,-71
2018-01-22T05:41:47.439Z,-72
2018-01-22T05:42:47.060Z,-73
2018-01-22T05:43:47.411Z,-73
2018-01-22T05:44:47.480Z,-72
2018-01-22T05:45:47.634Z,-72
2018-01-22T05:46:47.594Z,-73
2018-01-22T05:47:47.521Z,-73
2018-01-22T05:48:47.559Z,-72
2018-01-22T05:49:47.299Z,-73
2018-01-22T05:50:47.403Z,-73
2018-01-22T05:51:47.265Z,-73
2018-01-22T05:52:47.796Z,-73
2018-01-22T05:53:47.511Z,-73
2018-01-22T05:54:47.435Z,-72
2018-01-22T05:55:47.343Z,-72
2018-01-22T05:56:47.505Z,-71
2018-01-22T05:57:48.035Z,-73
2018-01-22T05:58:47.525Z,-73
2018-01-22T05:59:47.319Z,-73
2018-01-22T06:00:47.367Z,-73
2018-01-22T06:01:47.368Z,-72
2018-01-22T06:02:47.871Z,-73
2018-01-22T06:03:47.355Z,-73
2018-01-22T06:04:47.333Z,-73
2018-01-22T06:05:47.556Z,-71
2018-01-22T06:06:47.408Z,-73
2018-01-22T06:07:47.449Z,-73
2018-01-22T06:08:47.668Z,-72
2018-01-22T06:09:47.265Z,-73
2018-01-22T06:10:47.298Z,-73
2018-01-22T06:11:47.453Z,-76
2018-01-22T06:12:47.331Z,-76
2018-01-22T06:13:47.351Z,-76
2018-01-22T06:14:47.578Z,-76
2018-01-22T06:15:47.546Z,-75
2018-01-22T06:16:47.359Z,-75
2018-01-22T06:17:47.675Z,-77
2018-01-22T06:18:47.386Z,-76
2018-01-22T06:19:47.480Z,-76
2018-01-22T06:20:47.676Z,-76
2018-01-22T06:21:47.533Z,-76
2018-01-22T06:22:47.566Z,-76
2018-01-22T06:23:47.352Z,-75
2018-01-22T06:24:47.298Z,-75
2018-01-22T06:25:47.612Z,-74
2018-01-22T06:26:47.470Z,-75
2018-01-22T06:28:47.694Z,-76
2018-01-22T06:29:47.527Z,-76
2018-01-22T06:30:47.466Z,-76
2018-01-22T06:31:47.346Z,-75
2018-01-22T06:32:47.389Z,-76
2018-01-22T06:33:47.455Z,-76
2018-01-22T06:34:47.502Z,-76
2018-01-22T06:35:47.696Z,-71
2018-01-22T06:36:47.459Z,-71
2018-01-22T06:37:47.413Z,-71
2018-01-22T06:38:47.432Z,-72
2018-01-22T06:39:47.608Z,-72
2018-01-22T06:40:47.276Z,-72
2018-01-22T06:41:47.778Z,-72
2018-01-22T06:42:47.528Z,-71
2018-01-22T06:43:47.404Z,-72
2018-01-22T06:44:47.658Z,-72
2018-01-22T06:45:47.700Z,-76
2018-01-22T06:46:47.626Z,-75
2018-01-22T06:47:47.692Z,-76
2018-01-22T06:48:47.426Z,-76
2018-01-22T06:49:47.469Z,-76
2018-01-22T06:50:47.466Z,-76
2018-01-22T06:51:47.543Z,-76
2018-01-22T06:52:47.841Z,-76
2018-01-22T06:53:47.705Z,-76
2018-01-22T06:54:47.434Z,-77
2018-01-22T06:55:47.659Z,-75
2018-01-22T06:56:47.742Z,-75
2018-01-22T06:57:47.537Z,-75
2018-01-22T06:58:47.822Z,-76
2018-01-22T07:02:47.535Z,-76
2018-01-22T07:03:47.559Z,-76
2018-01-22T07:04:47.738Z,-76
2018-01-22T07:05:46.623Z,-77
2018-01-22T07:06:46.610Z,-76
2018-01-22T07:07:47.416Z,-76
2018-01-22T07:08:46.835Z,-76
2018-01-22T07:09:47.643Z,-75
2018-01-22T07:10:46.664Z,-76
2018-01-22T07:11:46.773Z,-75
2018-01-22T07:12:47.381Z,-76
2018-01-22T07:13:46.713Z,-76
2018-01-22T07:17:13.686Z,-73
2018-01-22T07:17:46.525Z,-72
2018-01-22T07:18:46.692Z,-70
2018-01-22T07:19:48.265Z,-71
2018-01-22T07:20:47.754Z,-71
2018-01-22T07:21:47.712Z,-71
2018-01-22T07:22:47.742Z,-72
2018-01-22T07:23:47.668Z,-72
2018-01-22T07:24:47.718Z,-73
2018-01-22T07:25:47.491Z,-73
2018-01-22T07:26:47.379Z,-73
2018-01-22T07:27:47.773Z,-72
2018-01-22T07:28:48.140Z,-72
2018-01-22T07:29:47.814Z,-72
2018-01-22T07:30:48.614Z,-72
2018-01-22T07:31:47.915Z,-72
2018-01-22T07:32:47.885Z,-72
2018-01-22T07:33:48.668Z,-72
2018-01-22T07:37:47.634Z,-72
2018-01-22T07:38:48.171Z,-71
2018-01-22T07:39:48.127Z,-75
2018-01-22T07:40:46.602Z,-77
2018-01-22T07:41:46.836Z,-77
2018-01-22T07:42:47.060Z,-77
2018-01-22T07:43:47.017Z,-77
2018-01-22T07:44:47.119Z,-76
2018-01-22T07:45:47.159Z,-77
2018-01-22T07:46:47.241Z,-77
2018-01-22T07:47:47.112Z,-77
2018-01-22T07:48:46.760Z,-75
2018-01-22T07:49:46.718Z,-76
2018-01-22T07:50:46.854Z,-77
2018-01-22T07:51:46.789Z,-77
2018-01-22T07:52:46.731Z,-76
2018-01-22T07:53:46.839Z,-76
2018-01-22T07:54:46.656Z,-76
2018-01-22T07:55:46.947Z,-77
2018-01-22T07:56:46.722Z,-77
2018-01-22T07:57:47.114Z,-77
2018-01-22T07:58:46.982Z,-77
2018-01-22T07:59:46.965Z,-77
2018-01-22T08:00:46.690Z,-77
2018-01-22T08:01:46.885Z,-76
2018-01-22T08:02:46.647Z,-77
2018-01-22T08:04:46.618Z,-71
2018-01-22T08:05:46.912Z,-71
2018-01-22T08:06:46.777Z,-71
2018-01-22T08:07:47.030Z,-71
2018-01-22T08:08:46.816Z,-71
2018-01-22T08:09:46.893Z,-71
2018-01-22T08:10:46.953Z,-71
2018-01-22T08:11:46.928Z,-70
2018-01-22T08:12:46.935Z,-70
2018-01-22T08:13:46.942Z,-71
2018-01-22T08:14:46.858Z,-70
2018-01-22T08:15:47.180Z,-70
2018-01-22T08:18:47.422Z,-74
2018-01-22T08:19:46.917Z,-77
2018-01-22T08:20:46.934Z,-77
2018-01-22T08:21:48.080Z,-77
2018-01-22T08:22:46.863Z,-76
2018-01-22T08:23:46.831Z,-77
2018-01-22T08:24:46.632Z,-71
2018-01-22T08:25:46.894Z,-72
2018-01-22T08:26:46.798Z,-71
2018-01-22T08:27:46.684Z,-75
2018-01-22T08:28:46.972Z,-76
2018-01-22T08:29:47.024Z,-76
2018-01-22T08:30:48.921Z,-77
2018-01-22T08:31:46.813Z,-76
2018-01-22T08:32:47.029Z,-71
2018-01-22T08:33:46.872Z,-72
2018-01-22T08:34:46.725Z,-73
2018-01-22T08:35:46.920Z,-73
2018-01-22T08:36:46.813Z,-71
2018-01-22T08:37:47.169Z,-73
2018-01-22T08:38:47.134Z,-73
2018-01-22T08:39:47.038Z,-71
2018-01-22T08:40:47.053Z,-71
2018-01-22T08:41:47.219Z,-71
2018-01-22T08:42:47.195Z,-72
2018-01-22T08:43:46.937Z,-71
2018-01-22T08:44:47.177Z,-71
2018-01-22T08:45:47.102Z,-72
2018-01-22T08:46:46.850Z,-72
2018-01-22T08:47:47.077Z,-71
2018-01-22T08:48:47.022Z,-71
2018-01-22T08:49:48.274Z,-73
2018-01-22T08:50:46.828Z,-71
2018-01-22T08:51:46.900Z,-71
2018-01-22T08:52:48.894Z,-71
2018-01-22T08:53:47.189Z,-71
2018-01-22T08:54:46.958Z,-74
2018-01-22T08:55:47.057Z,-76
2018-01-22T08:56:47.231Z,-76
2018-01-22T08:57:46.836Z,-76
2018-01-22T08:58:47.272Z,-76
2018-01-22T08:59:47.127Z,-76
2018-01-22T09:00:46.957Z,-76
2018-01-22T09:01:47.230Z,-74
2018-01-22T09:02:47.238Z,-76
2018-01-22T09:03:46.837Z,-76
2018-01-22T09:04:47.010Z,-77
2018-01-22T09:05:47.096Z,-76
2018-01-22T09:06:47.100Z,-76
2018-01-22T09:07:47.062Z,-76
2018-01-22T09:08:47.227Z,-73
2018-01-22T09:09:48.394Z,-73
2018-01-22T09:10:46.988Z,-72
2018-01-22T09:11:47.176Z,-72
2018-01-22T09:12:47.248Z,-73
2018-01-22T09:13:47.152Z,-72
2018-01-22T09:14:47.234Z,-72
2018-01-22T09:15:47.111Z,-73
2018-01-22T09:16:47.047Z,-71
2018-01-22T09:17:47.283Z,-71
2018-01-22T09:18:47.184Z,-71
2018-01-22T09:20:01.648Z,-72
2018-01-22T09:20:48.721Z,-72
2018-01-22T09:21:47.055Z,-73
2018-01-22T09:22:47.015Z,-71
2018-01-22T09:23:47.193Z,-72
2018-01-22T09:24:47.112Z,-71
2018-01-22T09:25:47.208Z,-70
2018-01-22T09:26:47.174Z,-70
2018-01-22T09:27:47.167Z,-70
2018-01-22T09:28:46.933Z,-70
2018-01-22T09:29:47.115Z,-71
2018-01-22T09:30:48.513Z,-73
2018-01-22T09:31:47.007Z,-73
2018-01-22T09:32:46.975Z,-73
2018-01-22T09:33:47.071Z,-72
2018-01-22T09:34:47.181Z,-72
2018-01-22T09:35:47.253Z,-72
2018-01-22T09:36:48.453Z,-75
2018-01-22T09:37:47.291Z,-75
2018-01-22T09:38:48.589Z,-76
2018-01-22T09:39:48.409Z,-76
2018-01-22T09:40:49.606Z,-76
2018-01-22T09:41:48.208Z,-76
2018-01-22T09:42:48.588Z,-76
2018-01-22T09:43:48.497Z,-75
2018-01-22T09:44:48.586Z,-75
2018-01-22T09:45:47.141Z,-76
2018-01-22T09:46:48.462Z,-75
2018-01-22T09:47:48.441Z,-75
2018-01-22T09:48:48.461Z,-75
2018-01-22T09:49:48.530Z,-72
2018-01-22T09:50:48.557Z,-71
2018-01-22T09:51:48.560Z,-72
2018-01-22T09:52:47.089Z,-71
2018-01-22T09:53:47.314Z,-71
2018-01-22T09:54:49.198Z,-71
2018-01-22T09:55:47.251Z,-71
2018-01-22T09:56:48.592Z,-71
2018-01-22T09:57:47.276Z,-71
2018-01-22T09:58:47.299Z,-71
2018-01-22T09:59:47.189Z,-73
2018-01-22T10:00:48.588Z,-72
2018-01-22T10:01:47.200Z,-71
2018-01-22T10:02:48.410Z,-72
2018-01-22T10:03:47.290Z,-73
2018-01-22T10:04:47.205Z,-73
2018-01-22T10:05:47.247Z,-72
2018-01-22T10:06:49.183Z,-74
2018-01-22T10:07:47.195Z,-76
2018-01-22T10:08:48.645Z,-76
2018-01-22T10:09:48.467Z,-75
2018-01-22T10:10:47.350Z,-75
2018-01-22T10:11:48.189Z,-76
2018-01-22T10:12:47.228Z,-74
2018-01-22T10:13:47.098Z,-76
2018-01-22T10:14:47.393Z,-76
2018-01-22T10:15:47.208Z,-76
2018-01-22T10:16:48.621Z,-76
2018-01-22T10:17:47.326Z,-76
2018-01-22T10:18:48.596Z,-74
2018-01-22T10:19:47.193Z,-75
2018-01-22T10:20:47.306Z,-75
2018-01-22T10:21:48.658Z,-75
2018-01-22T10:22:47.231Z,-76
2018-01-22T10:23:47.265Z,-75
2018-01-22T10:24:47.309Z,-75
2018-01-22T10:25:47.274Z,-75
2018-01-22T10:26:48.859Z,-76
2018-01-22T10:27:48.505Z,-75
2018-01-22T10:28:48.586Z,-76
2018-01-22T10:29:47.331Z,-75
2018-01-22T10:30:47.372Z,-75
2018-01-22T10:31:47.328Z,-75
2018-01-22T10:32:49.185Z,-76
2018-01-22T10:33:47.347Z,-75
2018-01-22T10:34:47.210Z,-76
2018-01-22T10:35:47.205Z,-76
2018-01-22T10:36:47.228Z,-76
2018-01-22T10:37:47.297Z,-75
2018-01-22T10:38:47.158Z,-76
2018-01-22T10:39:48.475Z,-76
2018-01-22T10:40:47.240Z,-75
2018-01-22T10:41:48.910Z,-75
2018-01-22T10:42:47.152Z,-76
2018-01-22T10:43:48.509Z,-76
2018-01-22T10:44:48.424Z,-76
2018-01-22T10:45:48.425Z,-78
2018-01-22T10:46:48.563Z,-77
2018-01-22T10:47:48.633Z,-77
2018-01-22T10:48:47.236Z,-73
2018-01-22T10:49:47.316Z,-72
2018-01-22T10:50:47.349Z,-74
2018-01-22T10:51:47.301Z,-74
2018-01-22T10:52:48.377Z,-74
2018-01-22T10:53:47.291Z,-74
2018-01-22T10:54:47.350Z,-74
2018-01-22T10:55:48.719Z,-74
2018-01-22T10:56:47.364Z,-73
2018-01-22T10:57:48.570Z,-74
2018-01-22T10:58:47.056Z,-75
2018-01-22T10:59:47.341Z,-74
2018-01-22T11:00:48.595Z,-73
2018-01-22T11:01:48.612Z,-74
2018-01-22T11:02:47.277Z,-74
2018-01-22T11:03:47.300Z,-73
2018-01-22T11:04:47.237Z,-74
2018-01-22T11:05:47.326Z,-75
2018-01-22T11:06:48.658Z,-73
2018-01-22T11:07:48.691Z,-73
2018-01-22T11:08:46.782Z,-73
2018-01-22T11:09:47.397Z,-73
2018-01-22T11:10:46.640Z,-73
2018-01-22T11:11:46.683Z,-73
2018-01-22T11:12:46.874Z,-74
2018-01-22T11:13:46.863Z,-74
2018-01-22T11:14:46.643Z,-75
2018-01-22T11:15:46.575Z,-73
2018-01-22T11:16:46.410Z,-73
2018-01-22T11:17:46.699Z,-74
2018-01-22T11:18:46.654Z,-73
2018-01-22T11:19:46.693Z,-74
2018-01-22T11:20:46.494Z,-77
2018-01-22T11:21:46.575Z,-74
2018-01-22T11:22:46.518Z,-74
2018-01-22T11:23:46.410Z,-73
2018-01-22T11:24:46.524Z,-73
2018-01-22T11:25:46.712Z,-73
2018-01-22T11:26:46.645Z,-74
2018-01-22T11:27:46.795Z,-73
2018-01-22T11:28:47.021Z,-75
2018-01-22T11:29:46.668Z,-75
2018-01-22T11:30:46.790Z,-75
2018-01-22T11:31:46.466Z,-75
2018-01-22T11:32:46.617Z,-75
2018-01-22T11:33:46.569Z,-75
2018-01-22T11:34:47.276Z,-75
2018-01-22T11:35:46.582Z,-76
2018-01-22T11:36:46.421Z,-74
2018-01-22T11:37:46.643Z,-77
2018-01-22T11:38:46.651Z,-78
2018-01-22T11:39:46.885Z,-76
2018-01-22T11:40:46.660Z,-77
2018-01-22T11:41:46.497Z,-77
2018-01-22T11:42:46.958Z,-77
2018-01-22T11:43:46.557Z,-77
2018-01-22T11:44:46.804Z,-77
2018-01-22T11:45:46.788Z,-75
2018-01-22T11:46:46.931Z,-76
2018-01-22T11:47:46.848Z,-77
2018-01-22T11:48:47.106Z,-78
2018-01-22T11:49:46.871Z,-77
2018-01-22T11:50:46.537Z,-77
2018-01-22T11:51:46.620Z,-77
2018-01-22T11:52:46.619Z,-78
2018-01-22T11:53:46.432Z,-76
2018-01-22T11:54:46.887Z,-75
2018-01-22T11:55:46.842Z,-74
2018-01-22T11:56:46.783Z,-74
2018-01-22T11:57:46.681Z,-75
2018-01-22T11:58:46.788Z,-74
2018-01-22T11:59:46.954Z,-74
2018-01-22T12:00:46.775Z,-75
2018-01-22T12:01:46.600Z,-75
2018-01-22T12:02:46.800Z,-74
2018-01-22T12:03:46.708Z,-75
2018-01-22T12:04:46.818Z,-74
2018-01-22T12:05:46.630Z,-74
2018-01-22T12:06:46.798Z,-75
2018-01-22T12:07:46.743Z,-74
2018-01-22T12:08:47.071Z,-75
2018-01-22T12:09:47.284Z,-75
2018-01-22T12:10:47.176Z,-77
2018-01-22T12:11:47.182Z,-77
2018-01-22T12:12:47.235Z,-78
2018-01-22T12:13:47.324Z,-77
2018-01-22T12:14:48.830Z,-76
2018-01-22T12:15:47.094Z,-75
2018-01-22T12:16:47.413Z,-77
2018-01-22T12:17:48.615Z,-77
2018-01-22T12:18:47.414Z,-77
2018-01-22T12:19:47.420Z,-77
2018-01-22T12:20:47.173Z,-78
2018-01-22T12:21:47.183Z,-75
2018-01-22T12:22:47.290Z,-75
2018-01-22T12:23:47.143Z,-74
2018-01-22T12:24:47.239Z,-75
2018-01-22T12:25:48.732Z,-75
2018-01-22T12:26:47.232Z,-74
2018-01-22T12:27:49.370Z,-74
2018-01-22T12:28:47.266Z,-74
2018-01-22T12:29:47.286Z,-75
2018-01-22T12:30:47.306Z,-74
2018-01-22T12:31:48.597Z,-74
2018-01-22T12:32:48.709Z,-75
2018-01-22T12:33:47.384Z,-75
2018-01-22T12:34:47.364Z,-75
2018-01-22T12:35:49.074Z,-74
2018-01-22T12:36:47.246Z,-74
2018-01-22T12:37:47.387Z,-75
2018-01-22T12:38:47.362Z,-76
2018-01-22T12:39:47.207Z,-77
2018-01-22T12:40:47.416Z,-78
2018-01-22T12:41:48.653Z,-77
2018-01-22T12:42:48.794Z,-77
2018-01-22T12:43:47.457Z,-77
2018-01-22T12:44:47.464Z,-78
2018-01-22T12:45:48.461Z,-78
2018-01-22T12:46:47.388Z,-76
2018-01-22T12:47:48.748Z,-77
2018-01-22T12:48:47.449Z,-77
2018-01-22T12:49:48.694Z,-78
2018-01-22T12:50:47.410Z,-77
2018-01-22T12:51:47.313Z,-76
2018-01-22T12:52:48.727Z,-76
2018-01-22T12:53:49.316Z,-76
2018-01-22T12:54:48.589Z,-76
2018-01-22T12:55:48.450Z,-78
2018-01-22T12:56:47.423Z,-78
2018-01-22T12:57:48.572Z,-73
2018-01-22T12:58:47.323Z,-74
2018-01-22T12:59:47.475Z,-75
2018-01-22T13:00:47.233Z,-75
2018-01-22T13:01:48.477Z,-75
2018-01-22T13:02:47.417Z,-75
2018-01-22T13:03:47.295Z,-74
2018-01-22T13:04:47.292Z,-76
2018-01-22T13:05:48.596Z,-75
2018-01-22T13:06:47.376Z,-74
2018-01-22T13:07:47.272Z,-75
2018-01-22T13:08:48.920Z,-74
2018-01-22T13:09:47.439Z,-74
2018-01-22T13:10:47.354Z,-74
2018-01-22T13:11:47.338Z,-74
2018-01-22T13:12:47.444Z,-75
2018-01-22T13:13:47.458Z,-74
2018-01-22T13:14:47.321Z,-74
2018-01-22T13:15:48.779Z,-75
2018-01-22T13:16:47.396Z,-75
2018-01-22T13:17:47.202Z,-74
2018-01-22T13:18:48.830Z,-74
2018-01-22T13:19:48.790Z,-74
2018-01-22T13:20:47.218Z,-74
2018-01-22T13:21:47.273Z,-75
2018-01-22T13:22:47.339Z,-75
2018-01-22T13:23:47.460Z,-75
2018-01-22T13:24:48.719Z,-74
2018-01-22T13:25:48.748Z,-74
2018-01-22T13:26:48.506Z,-74
2018-01-22T13:27:47.181Z,-76
2018-01-22T13:28:48.649Z,-75
2018-01-22T13:29:47.339Z,-75
2018-01-22T13:30:48.541Z,-75
2018-01-22T13:31:48.744Z,-75
2018-01-22T13:32:48.647Z,-76
2018-01-22T13:33:48.596Z,-75
2018-01-22T13:34:48.601Z,-75
2018-01-22T13:35:47.299Z,-75
2018-01-22T13:36:48.773Z,-74
2018-01-22T13:37:48.730Z,-75
2018-01-22T13:38:48.713Z,-74
2018-01-22T13:39:47.442Z,-73
2018-01-22T13:40:47.411Z,-74
2018-01-22T13:41:48.602Z,-75
2018-01-22T13:42:47.370Z,-73
2018-01-22T13:43:48.751Z,-73
2018-01-22T13:44:48.628Z,-75
2018-01-22T13:45:48.537Z,-74
2018-01-22T13:46:48.870Z,-74
2018-01-22T13:47:48.684Z,-74
2018-01-22T13:48:47.473Z,-75
2018-01-22T13:49:49.512Z,-75
2018-01-22T13:50:49.213Z,-74
2018-01-22T13:51:48.792Z,-74
2018-01-22T13:52:48.834Z,-74
2018-01-22T13:53:48.513Z,-74
2018-01-22T13:54:48.745Z,-73
2018-01-22T13:55:48.626Z,-74
2018-01-22T13:56:47.419Z,-77
2018-01-22T13:57:47.453Z,-78
2018-01-22T13:58:48.722Z,-78
2018-01-22T13:59:48.876Z,-78
2018-01-22T14:00:47.409Z,-76
2018-01-22T14:01:47.326Z,-77
2018-01-22T14:02:47.445Z,-77
2018-01-22T14:03:47.433Z,-78
2018-01-22T14:04:47.421Z,-76
2018-01-22T14:05:47.375Z,-77
2018-01-22T14:06:47.489Z,-77
2018-01-22T14:07:48.648Z,-77
2018-01-22T14:08:48.804Z,-76
2018-01-22T14:09:46.756Z,-76
2018-01-22T14:10:46.724Z,-77
2018-01-22T14:11:46.869Z,-78
2018-01-22T14:12:46.827Z,-77
2018-01-22T14:13:46.857Z,-78
2018-01-22T14:14:46.660Z,-76
2018-01-22T14:15:46.781Z,-78
2018-01-22T14:16:46.725Z,-77
2018-01-22T14:17:46.926Z,-77
2018-01-22T14:18:46.785Z,-78
2018-01-22T14:19:46.786Z,-76
2018-01-22T14:20:46.534Z,-76
2018-01-22T14:21:46.748Z,-76
2018-01-22T14:22:46.882Z,-76
2018-01-22T14:23:46.793Z,-76
2018-01-22T14:24:47.002Z,-76
2018-01-22T14:25:46.789Z,-77
2018-01-22T14:26:46.693Z,-77
2018-01-22T14:27:46.891Z,-78
2018-01-22T14:28:46.862Z,-76
2018-01-22T14:29:46.515Z,-77